sensor_id;sensor_type;location;lat;lon;timestamp;P1;durP1;ratioP1;P2;durP2;ratioP2
28174;SDS011;59417;44.788;10.334;2023-10-08T00:00:23;54.90;;;40.30;;
28174;SDS011;59417;44.788;10.334;2023-10-08T00:03:08;59.47;;;39.35;;
28174;SDS011;59417;44.788;10.334;2023-10-08T00:05:39;53.30;;;41.17;;
28174;SDS011;59417;44.788;10.334;2023-10-08T00:08:06;63.17;;;43.38;;
28174;SDS011;59417;44.788;10.334;2023-10-08T00:10:36;53.28;;;39.85;;
28174;SDS011;59417;44.788;10.334;2023-10-08T00:13:05;51.92;;;36.22;;
28174;SDS011;59417;44.788;10.334;2023-10-08T00:18:07;57.72;;;40.83;;
28174;SDS011;59417;44.788;10.334;2023-10-08T00:23:12;48.55;;;36.53;;
28174;SDS011;59417;44.788;10.334;2023-10-08T00:25:40;54.47;;;37.60;;
28174;SDS011;59417;44.788;10.334;2023-10-08T00:28:09;57.40;;;38.90;;
28174;SDS011;59417;44.788;10.334;2023-10-08T00:30:42;48.97;;;35.50;;
28174;SDS011;59417;44.788;10.334;2023-10-08T00:33:09;49.67;;;37.22;;
28174;SDS011;59417;44.788;10.334;2023-10-08T00:35:37;47.63;;;34.95;;
28174;SDS011;59417;44.788;10.334;2023-10-08T00:38:07;49.63;;;34.45;;
28174;SDS011;59417;44.788;10.334;2023-10-08T00:40:40;47.90;;;35.63;;
28174;SDS011;59417;44.788;10.334;2023-10-08T00:45:59;50.50;;;37.65;;
28174;SDS011;59417;44.788;10.334;2023-10-08T00:48:26;55.38;;;38.95;;
28174;SDS011;59417;44.788;10.334;2023-10-08T00:51:01;57.92;;;38.97;;
28174;SDS011;59417;44.788;10.334;2023-10-08T00:53:46;47.58;;;37.25;;
28174;SDS011;59417;44.788;10.334;2023-10-08T00:56:35;51.88;;;36.10;;
28174;SDS011;59417;44.788;10.334;2023-10-08T00:59:20;46.13;;;36.30;;
28174;SDS011;59417;44.788;10.334;2023-10-08T01:01:49;53.67;;;37.97;;
28174;SDS011;59417;44.788;10.334;2023-10-08T01:04:20;49.67;;;35.88;;
28174;SDS011;59417;44.788;10.334;2023-10-08T01:06:59;52.65;;;37.63;;
28174;SDS011;59417;44.788;10.334;2023-10-08T01:09:40;48.85;;;37.05;;
28174;SDS011;59417;44.788;10.334;2023-10-08T01:12:21;49.25;;;37.83;;
28174;SDS011;59417;44.788;10.334;2023-10-08T01:14:52;54.35;;;38.90;;
28174;SDS011;59417;44.788;10.334;2023-10-08T01:17:40;54.65;;;38.85;;
28174;SDS011;59417;44.788;10.334;2023-10-08T01:20:15;54.63;;;36.53;;
28174;SDS011;59417;44.788;10.334;2023-10-08T01:23:07;49.53;;;36.72;;
28174;SDS011;59417;44.788;10.334;2023-10-08T01:25:42;47.67;;;34.47;;
28174;SDS011;59417;44.788;10.334;2023-10-08T01:28:08;52.10;;;36.28;;
28174;SDS011;59417;44.788;10.334;2023-10-08T01:30:43;49.65;;;36.13;;
28174;SDS011;59417;44.788;10.334;2023-10-08T01:33:13;52.88;;;38.40;;
28174;SDS011;59417;44.788;10.334;2023-10-08T01:35:41;47.38;;;37.25;;
28174;SDS011;59417;44.788;10.334;2023-10-08T01:38:07;52.38;;;37.80;;
28174;SDS011;59417;44.788;10.334;2023-10-08T01:40:41;55.63;;;39.30;;
28174;SDS011;59417;44.788;10.334;2023-10-08T01:43:08;56.08;;;39.97;;
28174;SDS011;59417;44.788;10.334;2023-10-08T01:45:36;56.22;;;40.42;;
28174;SDS011;59417;44.788;10.334;2023-10-08T01:48:06;48.92;;;38.05;;
28174;SDS011;59417;44.788;10.334;2023-10-08T01:50:35;54.88;;;40.00;;
28174;SDS011;59417;44.788;10.334;2023-10-08T01:53:01;51.40;;;38.30;;
28174;SDS011;59417;44.788;10.334;2023-10-08T01:55:27;60.42;;;40.78;;
28174;SDS011;59417;44.788;10.334;2023-10-08T01:57:58;52.13;;;40.35;;
28174;SDS011;59417;44.788;10.334;2023-10-08T02:00:25;53.92;;;38.97;;
28174;SDS011;59417;44.788;10.334;2023-10-08T02:02:52;52.72;;;40.03;;
28174;SDS011;59417;44.788;10.334;2023-10-08T02:05:23;48.65;;;39.33;;
28174;SDS011;59417;44.788;10.334;2023-10-08T02:07:50;51.45;;;38.50;;
28174;SDS011;59417;44.788;10.334;2023-10-08T02:10:16;54.42;;;39.00;;
28174;SDS011;59417;44.788;10.334;2023-10-08T02:12:42;49.65;;;37.75;;
28174;SDS011;59417;44.788;10.334;2023-10-08T02:15:08;54.30;;;39.80;;
28174;SDS011;59417;44.788;10.334;2023-10-08T02:17:36;44.45;;;36.55;;
28174;SDS011;59417;44.788;10.334;2023-10-08T02:20:03;50.13;;;37.80;;
28174;SDS011;59417;44.788;10.334;2023-10-08T02:22:31;46.15;;;35.72;;
28174;SDS011;59417;44.788;10.334;2023-10-08T02:24:58;45.85;;;36.20;;
28174;SDS011;59417;44.788;10.334;2023-10-08T02:27:27;57.22;;;36.50;;
28174;SDS011;59417;44.788;10.334;2023-10-08T02:29:53;50.85;;;37.47;;
28174;SDS011;59417;44.788;10.334;2023-10-08T02:32:19;50.60;;;37.22;;
28174;SDS011;59417;44.788;10.334;2023-10-08T02:34:48;47.58;;;35.60;;
28174;SDS011;59417;44.788;10.334;2023-10-08T02:37:16;54.88;;;38.80;;
28174;SDS011;59417;44.788;10.334;2023-10-08T02:39:45;52.63;;;37.38;;
28174;SDS011;59417;44.788;10.334;2023-10-08T02:42:11;54.05;;;36.70;;
28174;SDS011;59417;44.788;10.334;2023-10-08T02:44:38;57.10;;;38.42;;
28174;SDS011;59417;44.788;10.334;2023-10-08T02:47:09;56.08;;;37.22;;
28174;SDS011;59417;44.788;10.334;2023-10-08T02:49:46;46.75;;;35.38;;
28174;SDS011;59417;44.788;10.334;2023-10-08T02:52:15;49.67;;;36.37;;
28174;SDS011;59417;44.788;10.334;2023-10-08T02:54:44;45.97;;;35.80;;
28174;SDS011;59417;44.788;10.334;2023-10-08T02:57:11;49.38;;;36.40;;
28174;SDS011;59417;44.788;10.334;2023-10-08T02:59:39;51.42;;;35.20;;
28174;SDS011;59417;44.788;10.334;2023-10-08T03:02:07;46.92;;;36.45;;
28174;SDS011;59417;44.788;10.334;2023-10-08T03:04:51;50.50;;;35.65;;
28174;SDS011;59417;44.788;10.334;2023-10-08T03:07:18;47.72;;;36.17;;
28174;SDS011;59417;44.788;10.334;2023-10-08T03:09:49;45.25;;;35.40;;
28174;SDS011;59417;44.788;10.334;2023-10-08T03:12:17;47.53;;;36.42;;
28174;SDS011;59417;44.788;10.334;2023-10-08T03:14:43;51.33;;;36.83;;
28174;SDS011;59417;44.788;10.334;2023-10-08T03:17:27;54.10;;;38.13;;
28174;SDS011;59417;44.788;10.334;2023-10-08T03:20:02;52.40;;;37.53;;
28174;SDS011;59417;44.788;10.334;2023-10-08T03:22:47;47.60;;;35.67;;
28174;SDS011;59417;44.788;10.334;2023-10-08T03:25:13;46.13;;;35.65;;
28174;SDS011;59417;44.788;10.334;2023-10-08T03:27:42;50.95;;;35.60;;
28174;SDS011;59417;44.788;10.334;2023-10-08T03:30:09;52.03;;;37.85;;
28174;SDS011;59417;44.788;10.334;2023-10-08T03:32:42;51.10;;;36.20;;
28174;SDS011;59417;44.788;10.334;2023-10-08T03:35:10;46.88;;;35.25;;
28174;SDS011;59417;44.788;10.334;2023-10-08T03:37:36;52.10;;;36.13;;
28174;SDS011;59417;44.788;10.334;2023-10-08T03:40:11;52.08;;;36.97;;
28174;SDS011;59417;44.788;10.334;2023-10-08T03:42:55;52.00;;;36.83;;
28174;SDS011;59417;44.788;10.334;2023-10-08T03:45:22;52.47;;;35.92;;
28174;SDS011;59417;44.788;10.334;2023-10-08T03:48:06;50.05;;;37.35;;
28174;SDS011;59417;44.788;10.334;2023-10-08T03:50:33;46.05;;;34.08;;
28174;SDS011;59417;44.788;10.334;2023-10-08T03:53:08;49.85;;;36.67;;
28174;SDS011;59417;44.788;10.334;2023-10-08T03:55:38;53.88;;;37.47;;
28174;SDS011;59417;44.788;10.334;2023-10-08T03:58:07;54.58;;;38.47;;
28174;SDS011;59417;44.788;10.334;2023-10-08T04:00:37;56.92;;;37.65;;
28174;SDS011;59417;44.788;10.334;2023-10-08T04:05:37;55.80;;;35.75;;
28174;SDS011;59417;44.788;10.334;2023-10-08T04:08:25;50.28;;;38.97;;
28174;SDS011;59417;44.788;10.334;2023-10-08T04:11:08;53.20;;;38.85;;
28174;SDS011;59417;44.788;10.334;2023-10-08T04:13:47;50.45;;;36.40;;
28174;SDS011;59417;44.788;10.334;2023-10-08T04:16:14;55.28;;;38.35;;
28174;SDS011;59417;44.788;10.334;2023-10-08T04:18:45;57.05;;;39.05;;
28174;SDS011;59417;44.788;10.334;2023-10-08T04:21:24;51.88;;;38.50;;
28174;SDS011;59417;44.788;10.334;2023-10-08T04:23:54;55.88;;;37.97;;
28174;SDS011;59417;44.788;10.334;2023-10-08T04:26:23;57.88;;;37.50;;
28174;SDS011;59417;44.788;10.334;2023-10-08T04:28:56;44.75;;;35.08;;
28174;SDS011;59417;44.788;10.334;2023-10-08T04:31:26;54.63;;;38.60;;
28174;SDS011;59417;44.788;10.334;2023-10-08T04:34:02;50.15;;;36.75;;
28174;SDS011;59417;44.788;10.334;2023-10-08T04:36:35;51.45;;;38.00;;
28174;SDS011;59417;44.788;10.334;2023-10-08T04:39:04;49.83;;;35.63;;
28174;SDS011;59417;44.788;10.334;2023-10-08T04:41:40;51.97;;;37.63;;
28174;SDS011;59417;44.788;10.334;2023-10-08T04:44:11;47.08;;;36.67;;
28174;SDS011;59417;44.788;10.334;2023-10-08T04:46:41;51.50;;;35.92;;
28174;SDS011;59417;44.788;10.334;2023-10-08T04:49:13;53.28;;;36.08;;
28174;SDS011;59417;44.788;10.334;2023-10-08T04:51:48;49.28;;;34.38;;
28174;SDS011;59417;44.788;10.334;2023-10-08T04:54:14;47.65;;;35.55;;
28174;SDS011;59417;44.788;10.334;2023-10-08T04:56:43;44.17;;;34.03;;
28174;SDS011;59417;44.788;10.334;2023-10-08T04:59:09;48.72;;;35.92;;
28174;SDS011;59417;44.788;10.334;2023-10-08T05:01:38;43.03;;;33.83;;
28174;SDS011;59417;44.788;10.334;2023-10-08T05:04:13;42.90;;;33.25;;
28174;SDS011;59417;44.788;10.334;2023-10-08T05:06:49;44.20;;;33.72;;
28174;SDS011;59417;44.788;10.334;2023-10-08T05:09:14;44.78;;;33.40;;
28174;SDS011;59417;44.788;10.334;2023-10-08T05:11:47;42.67;;;32.08;;
28174;SDS011;59417;44.788;10.334;2023-10-08T05:14:23;41.20;;;31.40;;
28174;SDS011;59417;44.788;10.334;2023-10-08T05:16:59;39.22;;;31.38;;
28174;SDS011;59417;44.788;10.334;2023-10-08T05:19:47;40.28;;;30.65;;
28174;SDS011;59417;44.788;10.334;2023-10-08T05:22:24;50.20;;;34.05;;
28174;SDS011;59417;44.788;10.334;2023-10-08T05:24:52;46.55;;;35.45;;
28174;SDS011;59417;44.788;10.334;2023-10-08T05:27:51;45.35;;;33.88;;
28174;SDS011;59417;44.788;10.334;2023-10-08T05:30:19;45.60;;;33.53;;
28174;SDS011;59417;44.788;10.334;2023-10-08T05:33:04;42.50;;;32.47;;
28174;SDS011;59417;44.788;10.334;2023-10-08T05:35:35;46.15;;;33.67;;
28174;SDS011;59417;44.788;10.334;2023-10-08T05:38:11;50.13;;;35.92;;
28174;SDS011;59417;44.788;10.334;2023-10-08T05:40:39;43.38;;;33.00;;
28174;SDS011;59417;44.788;10.334;2023-10-08T05:46:04;47.90;;;35.28;;
28174;SDS011;59417;44.788;10.334;2023-10-08T05:51:29;40.65;;;30.25;;
28174;SDS011;59417;44.788;10.334;2023-10-08T05:54:14;45.08;;;33.33;;
28174;SDS011;59417;44.788;10.334;2023-10-08T05:59:39;41.13;;;31.52;;
28174;SDS011;59417;44.788;10.334;2023-10-08T06:02:38;40.25;;;31.77;;
28174;SDS011;59417;44.788;10.334;2023-10-08T06:05:12;36.60;;;28.50;;
28174;SDS011;59417;44.788;10.334;2023-10-08T06:07:44;36.97;;;29.02;;
28174;SDS011;59417;44.788;10.334;2023-10-08T06:10:33;40.65;;;30.38;;
28174;SDS011;59417;44.788;10.334;2023-10-08T06:13:05;40.08;;;30.80;;
28174;SDS011;59417;44.788;10.334;2023-10-08T06:15:41;43.45;;;31.75;;
28174;SDS011;59417;44.788;10.334;2023-10-08T06:18:23;41.92;;;30.10;;
28174;SDS011;59417;44.788;10.334;2023-10-08T06:23:20;40.83;;;29.48;;
28174;SDS011;59417;44.788;10.334;2023-10-08T06:25:52;41.95;;;29.02;;
28174;SDS011;59417;44.788;10.334;2023-10-08T06:28:24;40.40;;;31.10;;
28174;SDS011;59417;44.788;10.334;2023-10-08T06:30:54;41.08;;;29.73;;
28174;SDS011;59417;44.788;10.334;2023-10-08T06:33:22;37.30;;;28.10;;
28174;SDS011;59417;44.788;10.334;2023-10-08T06:35:56;43.83;;;29.98;;
28174;SDS011;59417;44.788;10.334;2023-10-08T06:38:34;39.55;;;28.20;;
28174;SDS011;59417;44.788;10.334;2023-10-08T06:41:00;37.65;;;29.15;;
28174;SDS011;59417;44.788;10.334;2023-10-08T06:43:54;35.25;;;28.23;;
28174;SDS011;59417;44.788;10.334;2023-10-08T06:46:29;39.85;;;27.92;;
28174;SDS011;59417;44.788;10.334;2023-10-08T06:48:58;35.30;;;27.85;;
28174;SDS011;59417;44.788;10.334;2023-10-08T06:51:27;37.97;;;27.33;;
28174;SDS011;59417;44.788;10.334;2023-10-08T06:53:55;39.65;;;27.40;;
28174;SDS011;59417;44.788;10.334;2023-10-08T06:56:25;35.45;;;27.17;;
28174;SDS011;59417;44.788;10.334;2023-10-08T06:58:51;31.40;;;26.73;;
28174;SDS011;59417;44.788;10.334;2023-10-08T07:01:19;32.47;;;25.25;;
28174;SDS011;59417;44.788;10.334;2023-10-08T07:03:54;30.65;;;24.83;;
28174;SDS011;59417;44.788;10.334;2023-10-08T07:06:28;30.02;;;23.67;;
28174;SDS011;59417;44.788;10.334;2023-10-08T07:09:02;37.63;;;26.52;;
28174;SDS011;59417;44.788;10.334;2023-10-08T07:11:34;34.35;;;25.00;;
28174;SDS011;59417;44.788;10.334;2023-10-08T07:14:04;33.22;;;23.95;;
28174;SDS011;59417;44.788;10.334;2023-10-08T07:18:59;34.88;;;24.25;;
28174;SDS011;59417;44.788;10.334;2023-10-08T07:21:45;32.58;;;21.05;;
28174;SDS011;59417;44.788;10.334;2023-10-08T07:24:14;30.85;;;23.13;;
28174;SDS011;59417;44.788;10.334;2023-10-08T07:26:47;31.45;;;23.35;;
28174;SDS011;59417;44.788;10.334;2023-10-08T07:29:15;25.98;;;21.23;;
28174;SDS011;59417;44.788;10.334;2023-10-08T07:31:45;31.48;;;22.27;;
28174;SDS011;59417;44.788;10.334;2023-10-08T07:34:15;27.48;;;20.85;;
28174;SDS011;59417;44.788;10.334;2023-10-08T07:36:43;26.95;;;22.92;;
28174;SDS011;59417;44.788;10.334;2023-10-08T07:41:51;28.45;;;20.75;;
28174;SDS011;59417;44.788;10.334;2023-10-08T07:44:20;29.58;;;20.40;;
28174;SDS011;59417;44.788;10.334;2023-10-08T07:46:48;30.15;;;21.27;;
28174;SDS011;59417;44.788;10.334;2023-10-08T07:49:14;25.67;;;20.08;;
28174;SDS011;59417;44.788;10.334;2023-10-08T07:51:40;27.95;;;21.70;;
28174;SDS011;59417;44.788;10.334;2023-10-08T07:54:06;29.27;;;22.23;;
28174;SDS011;59417;44.788;10.334;2023-10-08T07:56:41;30.50;;;21.83;;
28174;SDS011;59417;44.788;10.334;2023-10-08T07:59:08;29.88;;;21.40;;
28174;SDS011;59417;44.788;10.334;2023-10-08T08:01:34;31.77;;;22.85;;
28174;SDS011;59417;44.788;10.334;2023-10-08T08:04:00;30.98;;;23.73;;
28174;SDS011;59417;44.788;10.334;2023-10-08T08:06:27;32.42;;;23.73;;
28174;SDS011;59417;44.788;10.334;2023-10-08T08:08:53;34.20;;;24.23;;
28174;SDS011;59417;44.788;10.334;2023-10-08T08:11:23;33.65;;;23.88;;
28174;SDS011;59417;44.788;10.334;2023-10-08T08:13:51;35.33;;;24.75;;
28174;SDS011;59417;44.788;10.334;2023-10-08T08:16:20;33.90;;;23.55;;
28174;SDS011;59417;44.788;10.334;2023-10-08T08:18:50;31.58;;;24.67;;
28174;SDS011;59417;44.788;10.334;2023-10-08T08:21:22;35.50;;;25.27;;
28174;SDS011;59417;44.788;10.334;2023-10-08T08:23:49;32.00;;;24.20;;
28174;SDS011;59417;44.788;10.334;2023-10-08T08:28:57;29.55;;;23.65;;
28174;SDS011;59417;44.788;10.334;2023-10-08T08:31:27;33.20;;;25.55;;
28174;SDS011;59417;44.788;10.334;2023-10-08T08:33:57;32.72;;;24.00;;
28174;SDS011;59417;44.788;10.334;2023-10-08T08:36:29;39.65;;;26.75;;
28174;SDS011;59417;44.788;10.334;2023-10-08T08:39:06;28.92;;;23.83;;
28174;SDS011;59417;44.788;10.334;2023-10-08T08:41:36;34.42;;;24.92;;
28174;SDS011;59417;44.788;10.334;2023-10-08T08:44:05;34.20;;;24.08;;
28174;SDS011;59417;44.788;10.334;2023-10-08T08:46:37;31.98;;;23.02;;
28174;SDS011;59417;44.788;10.334;2023-10-08T08:49:13;32.10;;;24.02;;
28174;SDS011;59417;44.788;10.334;2023-10-08T08:51:42;29.67;;;23.20;;
28174;SDS011;59417;44.788;10.334;2023-10-08T08:54:10;36.90;;;25.67;;
28174;SDS011;59417;44.788;10.334;2023-10-08T08:56:39;32.42;;;25.35;;
28174;SDS011;59417;44.788;10.334;2023-10-08T08:59:12;32.83;;;25.33;;
28174;SDS011;59417;44.788;10.334;2023-10-08T09:01:41;34.40;;;24.95;;
28174;SDS011;59417;44.788;10.334;2023-10-08T09:04:08;34.20;;;24.58;;
28174;SDS011;59417;44.788;10.334;2023-10-08T09:06:34;30.25;;;23.35;;
28174;SDS011;59417;44.788;10.334;2023-10-08T09:09:06;35.83;;;26.83;;
28174;SDS011;59417;44.788;10.334;2023-10-08T09:11:51;34.92;;;25.63;;
28174;SDS011;59417;44.788;10.334;2023-10-08T09:14:21;32.00;;;24.67;;
28174;SDS011;59417;44.788;10.334;2023-10-08T09:16:53;36.13;;;24.88;;
28174;SDS011;59417;44.788;10.334;2023-10-08T09:19:20;32.63;;;25.17;;
28174;SDS011;59417;44.788;10.334;2023-10-08T09:24:44;31.98;;;24.30;;
28174;SDS011;59417;44.788;10.334;2023-10-08T09:28:08;35.40;;;24.77;;
28174;SDS011;59417;44.788;10.334;2023-10-08T09:30:38;30.25;;;23.35;;
28174;SDS011;59417;44.788;10.334;2023-10-08T09:33:07;31.88;;;24.77;;
28174;SDS011;59417;44.788;10.334;2023-10-08T09:35:36;31.88;;;24.77;;
28174;SDS011;59417;44.788;10.334;2023-10-08T09:38:04;34.65;;;25.23;;
28174;SDS011;59417;44.788;10.334;2023-10-08T09:40:37;33.80;;;24.00;;
28174;SDS011;59417;44.788;10.334;2023-10-08T09:43:04;27.52;;;22.00;;
28174;SDS011;59417;44.788;10.334;2023-10-08T09:45:30;35.25;;;24.75;;
28174;SDS011;59417;44.788;10.334;2023-10-08T09:47:56;32.92;;;24.85;;
28174;SDS011;59417;44.788;10.334;2023-10-08T09:50:28;31.20;;;24.08;;
28174;SDS011;59417;44.788;10.334;2023-10-08T09:55:23;32.72;;;23.38;;
28174;SDS011;59417;44.788;10.334;2023-10-08T09:57:51;33.90;;;23.58;;
28174;SDS011;59417;44.788;10.334;2023-10-08T10:03:02;24.98;;;19.15;;
28174;SDS011;59417;44.788;10.334;2023-10-08T10:05:32;29.90;;;21.25;;
28174;SDS011;59417;44.788;10.334;2023-10-08T10:08:04;28.92;;;20.60;;
28174;SDS011;59417;44.788;10.334;2023-10-08T10:10:32;28.73;;;20.17;;
28174;SDS011;59417;44.788;10.334;2023-10-08T10:13:05;27.48;;;18.60;;
28174;SDS011;59417;44.788;10.334;2023-10-08T10:15:38;26.60;;;19.08;;
28174;SDS011;59417;44.788;10.334;2023-10-08T10:18:08;27.02;;;18.98;;
28174;SDS011;59417;44.788;10.334;2023-10-08T10:20:39;24.40;;;17.40;;
28174;SDS011;59417;44.788;10.334;2023-10-08T10:26:02;24.90;;;17.60;;
28174;SDS011;59417;44.788;10.334;2023-10-08T10:28:31;30.98;;;18.50;;
28174;SDS011;59417;44.788;10.334;2023-10-08T10:30:58;20.20;;;16.05;;
28174;SDS011;59417;44.788;10.334;2023-10-08T10:33:29;19.00;;;15.07;;
28174;SDS011;59417;44.788;10.334;2023-10-08T10:35:56;27.05;;;16.67;;
28174;SDS011;59417;44.788;10.334;2023-10-08T10:38:22;20.70;;;15.00;;
28174;SDS011;59417;44.788;10.334;2023-10-08T10:40:52;22.15;;;16.15;;
28174;SDS011;59417;44.788;10.334;2023-10-08T10:43:24;18.77;;;14.13;;
28174;SDS011;59417;44.788;10.334;2023-10-08T10:46:00;27.42;;;15.88;;
28174;SDS011;59417;44.788;10.334;2023-10-08T10:48:49;24.33;;;14.25;;
28174;SDS011;59417;44.788;10.334;2023-10-08T10:51:44;21.83;;;13.85;;
28174;SDS011;59417;44.788;10.334;2023-10-08T10:54:12;18.67;;;12.82;;
28174;SDS011;59417;44.788;10.334;2023-10-08T10:56:46;22.75;;;15.35;;
28174;SDS011;59417;44.788;10.334;2023-10-08T10:59:15;34.13;;;16.45;;
28174;SDS011;59417;44.788;10.334;2023-10-08T11:01:50;25.65;;;16.33;;
28174;SDS011;59417;44.788;10.334;2023-10-08T11:04:42;26.50;;;16.15;;
28174;SDS011;59417;44.788;10.334;2023-10-08T11:07:18;27.63;;;17.88;;
28174;SDS011;59417;44.788;10.334;2023-10-08T11:09:49;26.27;;;18.90;;
28174;SDS011;59417;44.788;10.334;2023-10-08T11:12:18;31.20;;;20.08;;
28174;SDS011;59417;44.788;10.334;2023-10-08T11:14:48;28.73;;;18.73;;
28174;SDS011;59417;44.788;10.334;2023-10-08T11:17:23;33.13;;;19.95;;
28174;SDS011;59417;44.788;10.334;2023-10-08T11:19:51;28.92;;;20.25;;
28174;SDS011;59417;44.788;10.334;2023-10-08T11:22:19;66.38;;;49.55;;
28174;SDS011;59417;44.788;10.334;2023-10-08T11:24:48;32.05;;;21.63;;
28174;SDS011;59417;44.788;10.334;2023-10-08T11:27:19;22.83;;;16.52;;
28174;SDS011;59417;44.788;10.334;2023-10-08T11:29:55;27.33;;;18.55;;
28174;SDS011;59417;44.788;10.334;2023-10-08T11:32:24;31.60;;;19.77;;
28174;SDS011;59417;44.788;10.334;2023-10-08T11:34:55;23.38;;;16.42;;
28174;SDS011;59417;44.788;10.334;2023-10-08T11:37:32;23.50;;;17.60;;
28174;SDS011;59417;44.788;10.334;2023-10-08T11:40:02;25.30;;;16.23;;
28174;SDS011;59417;44.788;10.334;2023-10-08T11:42:51;32.35;;;17.10;;
28174;SDS011;59417;44.788;10.334;2023-10-08T11:45:20;30.92;;;15.93;;
28174;SDS011;59417;44.788;10.334;2023-10-08T11:47:53;29.75;;;18.50;;
28174;SDS011;59417;44.788;10.334;2023-10-08T11:50:23;22.08;;;15.68;;
28174;SDS011;59417;44.788;10.334;2023-10-08T11:53:02;20.65;;;15.18;;
28174;SDS011;59417;44.788;10.334;2023-10-08T11:55:32;26.83;;;15.85;;
28174;SDS011;59417;44.788;10.334;2023-10-08T11:58:03;23.42;;;15.52;;
28174;SDS011;59417;44.788;10.334;2023-10-08T12:00:39;23.63;;;16.38;;
28174;SDS011;59417;44.788;10.334;2023-10-08T12:03:18;29.35;;;18.00;;
28174;SDS011;59417;44.788;10.334;2023-10-08T12:05:44;23.17;;;15.18;;
28174;SDS011;59417;44.788;10.334;2023-10-08T12:08:14;22.23;;;16.00;;
28174;SDS011;59417;44.788;10.334;2023-10-08T12:13:11;21.20;;;15.20;;
28174;SDS011;59417;44.788;10.334;2023-10-08T12:15:38;20.45;;;13.80;;
28174;SDS011;59417;44.788;10.334;2023-10-08T12:18:04;20.98;;;13.60;;
28174;SDS011;59417;44.788;10.334;2023-10-08T12:20:36;23.02;;;15.15;;
28174;SDS011;59417;44.788;10.334;2023-10-08T12:23:04;28.80;;;14.30;;
28174;SDS011;59417;44.788;10.334;2023-10-08T12:25:32;19.73;;;13.23;;
28174;SDS011;59417;44.788;10.334;2023-10-08T12:27:59;22.85;;;13.07;;
28174;SDS011;59417;44.788;10.334;2023-10-08T12:30:30;19.35;;;12.98;;
28174;SDS011;59417;44.788;10.334;2023-10-08T12:32:58;22.80;;;13.75;;
28174;SDS011;59417;44.788;10.334;2023-10-08T12:35:34;19.65;;;13.52;;
28174;SDS011;59417;44.788;10.334;2023-10-08T12:38:02;24.93;;;15.17;;
28174;SDS011;59417;44.788;10.334;2023-10-08T12:40:30;24.30;;;13.13;;
28174;SDS011;59417;44.788;10.334;2023-10-08T12:43:16;22.33;;;13.15;;
28174;SDS011;59417;44.788;10.334;2023-10-08T12:45:48;16.77;;;12.20;;
28174;SDS011;59417;44.788;10.334;2023-10-08T12:48:21;17.60;;;12.60;;
28174;SDS011;59417;44.788;10.334;2023-10-08T12:50:48;17.60;;;11.95;;
28174;SDS011;59417;44.788;10.334;2023-10-08T12:53:24;20.17;;;11.13;;
28174;SDS011;59417;44.788;10.334;2023-10-08T12:56:06;17.08;;;11.05;;
28174;SDS011;59417;44.788;10.334;2023-10-08T12:58:40;18.02;;;12.07;;
28174;SDS011;59417;44.788;10.334;2023-10-08T13:01:12;17.38;;;12.25;;
28174;SDS011;59417;44.788;10.334;2023-10-08T13:03:39;21.55;;;11.27;;
28174;SDS011;59417;44.788;10.334;2023-10-08T13:06:16;21.35;;;12.23;;
28174;SDS011;59417;44.788;10.334;2023-10-08T13:08:56;20.77;;;12.00;;
28174;SDS011;59417;44.788;10.334;2023-10-08T13:11:24;22.25;;;11.63;;
28174;SDS011;59417;44.788;10.334;2023-10-08T13:13:52;21.83;;;12.32;;
28174;SDS011;59417;44.788;10.334;2023-10-08T13:16:22;18.00;;;11.48;;
28174;SDS011;59417;44.788;10.334;2023-10-08T13:18:49;18.73;;;10.95;;
28174;SDS011;59417;44.788;10.334;2023-10-08T13:21:17;20.65;;;11.40;;
28174;SDS011;59417;44.788;10.334;2023-10-08T13:23:53;17.65;;;10.63;;
28174;SDS011;59417;44.788;10.334;2023-10-08T13:26:23;18.42;;;11.27;;
28174;SDS011;59417;44.788;10.334;2023-10-08T13:28:49;19.15;;;10.30;;
28174;SDS011;59417;44.788;10.334;2023-10-08T13:31:18;17.55;;;10.70;;
28174;SDS011;59417;44.788;10.334;2023-10-08T13:33:47;16.63;;;10.38;;
28174;SDS011;59417;44.788;10.334;2023-10-08T13:36:17;21.17;;;10.90;;
28174;SDS011;59417;44.788;10.334;2023-10-08T13:38:56;18.27;;;11.25;;
28174;SDS011;59417;44.788;10.334;2023-10-08T13:41:22;20.15;;;12.02;;
28174;SDS011;59417;44.788;10.334;2023-10-08T13:43:48;15.93;;;11.05;;
28174;SDS011;59417;44.788;10.334;2023-10-08T13:46:20;15.60;;;10.55;;
28174;SDS011;59417;44.788;10.334;2023-10-08T13:48:50;18.70;;;11.35;;
28174;SDS011;59417;44.788;10.334;2023-10-08T13:51:17;22.45;;;11.05;;
28174;SDS011;59417;44.788;10.334;2023-10-08T13:53:56;22.08;;;11.35;;
28174;SDS011;59417;44.788;10.334;2023-10-08T13:56:26;20.83;;;10.93;;
28174;SDS011;59417;44.788;10.334;2023-10-08T13:58:55;14.18;;;10.95;;
28174;SDS011;59417;44.788;10.334;2023-10-08T14:01:32;19.55;;;11.52;;
28174;SDS011;59417;44.788;10.334;2023-10-08T14:03:59;22.50;;;10.68;;
28174;SDS011;59417;44.788;10.334;2023-10-08T14:06:33;18.33;;;10.68;;
28174;SDS011;59417;44.788;10.334;2023-10-08T14:09:04;23.85;;;11.40;;
28174;SDS011;59417;44.788;10.334;2023-10-08T14:11:34;20.42;;;10.38;;
28174;SDS011;59417;44.788;10.334;2023-10-08T14:14:03;20.58;;;10.82;;
28174;SDS011;59417;44.788;10.334;2023-10-08T14:16:35;18.13;;;11.10;;
28174;SDS011;59417;44.788;10.334;2023-10-08T14:19:01;16.67;;;10.82;;
28174;SDS011;59417;44.788;10.334;2023-10-08T14:21:30;16.52;;;10.30;;
28174;SDS011;59417;44.788;10.334;2023-10-08T14:23:56;15.95;;;11.05;;
28174;SDS011;59417;44.788;10.334;2023-10-08T14:26:29;16.20;;;10.25;;
28174;SDS011;59417;44.788;10.334;2023-10-08T14:29:02;24.35;;;10.80;;
28174;SDS011;59417;44.788;10.334;2023-10-08T14:31:40;17.00;;;10.43;;
28174;SDS011;59417;44.788;10.334;2023-10-08T14:34:07;19.90;;;10.85;;
28174;SDS011;59417;44.788;10.334;2023-10-08T14:36:42;15.20;;;9.63;;
28174;SDS011;59417;44.788;10.334;2023-10-08T14:39:30;21.38;;;11.02;;
28174;SDS011;59417;44.788;10.334;2023-10-08T14:42:16;18.98;;;10.52;;
28174;SDS011;59417;44.788;10.334;2023-10-08T14:45:04;14.02;;;10.00;;
28174;SDS011;59417;44.788;10.334;2023-10-08T14:47:39;19.92;;;9.85;;
28174;SDS011;59417;44.788;10.334;2023-10-08T14:50:05;17.63;;;10.13;;
28174;SDS011;59417;44.788;10.334;2023-10-08T14:52:43;19.02;;;10.85;;
28174;SDS011;59417;44.788;10.334;2023-10-08T14:55:13;13.20;;;9.55;;
28174;SDS011;59417;44.788;10.334;2023-10-08T14:57:39;16.98;;;10.10;;
28174;SDS011;59417;44.788;10.334;2023-10-08T15:00:07;14.48;;;9.70;;
28174;SDS011;59417;44.788;10.334;2023-10-08T15:02:36;16.10;;;9.55;;
28174;SDS011;59417;44.788;10.334;2023-10-08T15:05:07;16.00;;;10.27;;
28174;SDS011;59417;44.788;10.334;2023-10-08T15:07:34;14.50;;;9.52;;
28174;SDS011;59417;44.788;10.334;2023-10-08T15:10:01;17.85;;;9.65;;
28174;SDS011;59417;44.788;10.334;2023-10-08T15:12:27;16.83;;;10.15;;
28174;SDS011;59417;44.788;10.334;2023-10-08T15:15:02;18.60;;;9.48;;
28174;SDS011;59417;44.788;10.334;2023-10-08T15:17:41;14.65;;;9.10;;